Y04 weather

Sugar Loaf Resort Airport
Traverse City, Michigan, United States

Public forecast

Using degrees Fahrenheit for public forecast. Weather courtesy of forecast.io.

Closest aviation weather report (METAR) to Sugar Loaf Resort Airport

Closest report is Cherry Capital Airport, 14.2 nm (26.4 km) SE. Retrieved 2019/10/17 19:53 UTC (2 hours ago):

KTVC 171953Z 33008G16KT 10SM FEW024 BKN037 10/02 A2995 RMK AO2 SLP145 T01000022

Closest aviation forecast (TAF) to Sugar Loaf Resort Airport

Closest forecast is Cherry Capital Airport, 14.2 nm (26.4 km) SE. Retrieved 2019/10/17 18:33 UTC (3 hours ago):

TAF KTVC 171731Z 1718/1818 34011KT P6SM SCT025 BKN035 FM172000 33011KT P6SM BKN035 FM172300 34007KT P6SM BKN060 FM180200 35005KT P6SM SCT080